Time;durP1;ratioP1;P1;durP2;ratioP2;P2;SDS_P1;SDS_P2;PMS_P1;PMS_P2;Temp;Humidity;BMP_temperature;BMP_pressure;BME280_temperature;BME280_humidity;BME280_pressure;Samples;Min_cycle;Max_cycle;Signal;HPM_P1;HPM_P2
2022/04/24 00:00:30;;;;;;;22.53;14.63;;;7.80;99.90;8.20;95554.00;;;;4973000;28;20587;-70
2022/04/24 00:03:00;;;;;;;24.03;14.27;;;7.80;99.90;7.80;95561.00;;;;4973408;28;20262;-70
2022/04/24 00:05:29;;;;;;;21.57;14.77;;;7.70;99.90;7.70;95558.00;;;;4973194;28;20469;-69
2022/04/24 00:07:57;;;;;;;21.33;13.93;;;7.60;99.90;8.00;95552.00;;;;4972503;28;20642;-70
2022/04/24 00:10:26;;;;;;;22.63;14.87;;;7.60;99.90;8.20;95545.00;;;;4972712;28;20713;-70
2022/04/24 00:12:55;;;;;;;23.37;14.83;;;7.60;99.90;8.20;95540.00;;;;4972095;28;20687;-70
2022/04/24 00:15:23;;;;;;;25.13;15.30;;;7.60;99.90;8.00;95538.00;;;;4971787;28;20214;-70
2022/04/24 00:17:52;;;;;;;23.53;14.90;;;7.50;99.90;7.80;95549.00;;;;4962815;28;20630;-70
2022/04/24 00:20:22;;;;;;;21.73;13.63;;;7.50;99.90;8.00;95537.00;;;;4951682;29;20679;-70
2022/04/24 00:22:50;;;;;;;22.53;14.60;;;7.40;99.90;8.10;95537.00;;;;4951629;29;20572;-70
2022/04/24 00:25:19;;;;;;;21.67;14.77;;;7.40;99.90;8.20;95536.00;;;;4967351;28;20613;-70
2022/04/24 00:27:48;;;;;;;22.83;15.50;;;7.40;99.90;8.10;95543.00;;;;4971527;28;20628;-70
2022/04/24 00:30:16;;;;;;;19.43;15.33;;;7.40;99.90;8.20;95543.00;;;;4972698;28;20578;-70
2022/04/24 00:32:45;;;;;;;21.93;14.37;;;7.40;99.90;8.20;95545.00;;;;4973116;28;20561;-70
2022/04/24 00:35:13;;;;;;;24.93;14.87;;;7.40;99.90;8.20;95534.00;;;;4972693;28;20631;-70
2022/04/24 00:37:43;;;;;;;19.20;13.10;;;7.50;99.90;7.90;95533.00;;;;4971305;28;20749;-70
2022/04/24 00:40:13;;;;;;;20.97;13.60;;;7.40;99.90;7.90;95534.00;;;;4972552;28;20600;-69
2022/04/24 00:42:41;;;;;;;19.53;14.57;;;7.40;99.90;7.70;95540.00;;;;4972590;28;20758;-70
2022/04/24 00:45:11;;;;;;;21.40;15.43;;;7.30;99.90;7.80;95529.00;;;;4972380;28;20717;-70
2022/04/24 00:47:41;;;;;;;22.70;14.27;;;7.40;99.90;7.80;95534.00;;;;4972067;28;20801;-69
2022/04/24 00:50:10;;;;;;;18.53;13.47;;;7.40;99.90;7.60;95529.00;;;;4972655;28;20667;-69
2022/04/24 00:52:39;;;;;;;22.53;14.57;;;7.40;99.90;7.70;95511.00;;;;4972222;28;20203;-70
2022/04/24 00:55:10;;;;;;;20.90;13.23;;;7.30;99.90;7.70;95504.00;;;;4972249;28;20206;-69
2022/04/24 00:57:41;;;;;;;24.77;15.73;;;7.30;99.90;7.70;95506.00;;;;4972014;28;20587;-69
2022/04/24 01:00:11;;;;;;;27.07;16.43;;;7.30;99.90;7.80;95516.00;;;;4971659;28;20694;-70
2022/04/24 01:02:40;;;;;;;27.77;14.57;;;7.30;99.90;7.80;95507.00;;;;4972306;28;20756;-70
2022/04/24 01:05:10;;;;;;;28.00;15.90;;;7.30;99.90;8.10;95504.00;;;;4972124;28;20610;-69
2022/04/24 01:07:38;;;;;;;30.00;16.87;;;7.30;99.90;8.00;95490.00;;;;4971998;28;20631;-70
2022/04/24 01:10:09;;;;;;;22.20;14.63;;;7.40;99.90;7.80;95498.00;;;;4971613;28;20698;-69
2022/04/24 01:12:38;;;;;;;21.00;13.63;;;7.40;99.90;7.60;95504.00;;;;4972472;28;20663;-70
2022/04/24 01:15:08;;;;;;;24.67;14.33;;;7.30;99.90;7.70;95507.00;;;;4971929;28;20546;-70
2022/04/24 01:17:36;;;;;;;23.57;15.00;;;7.30;99.90;7.90;95512.00;;;;4972400;28;20648;-70
2022/04/24 01:20:06;;;;;;;24.43;14.63;;;7.30;99.90;8.10;95502.00;;;;4971577;28;20725;-70
2022/04/24 01:22:36;;;;;;;24.70;15.77;;;7.40;99.90;8.30;95504.00;;;;4971913;28;20720;-70
2022/04/24 01:25:06;;;;;;;26.93;15.37;;;7.50;99.90;8.40;95497.00;;;;4971590;28;20199;-70
2022/04/24 01:27:34;;;;;;;24.80;18.35;;;7.50;99.90;8.40;95492.00;;;;4970350;28;20792;-70
2022/04/24 01:30:03;;;;;;;21.37;14.27;;;7.50;99.90;8.40;95493.00;;;;4971224;28;20196;-70
2022/04/24 01:32:32;;;;;;;22.63;17.58;;;7.60;99.90;8.00;95502.00;;;;4970714;28;20958;-70
2022/04/24 01:35:00;;;;;;;19.40;13.03;;;7.60;99.90;8.00;95493.00;;;;4971551;28;20789;-70
2022/04/24 01:37:29;;;;;;;17.63;13.00;;;7.60;99.90;8.10;95500.00;;;;4971473;28;20762;-70
2022/04/24 01:39:59;;;;;;;19.23;13.60;;;7.60;99.90;8.00;95501.00;;;;4971012;28;20596;-70
2022/04/24 01:42:28;;;;;;;18.27;12.10;;;7.50;99.90;8.00;95493.00;;;;4971369;28;20618;-70
2022/04/24 01:44:56;;;;;;;15.30;12.53;;;7.50;99.90;8.10;95474.00;;;;4987840;23;20752;-68
2022/04/24 01:47:25;;;;;;;16.47;13.60;;;7.50;99.90;8.20;95476.00;;;;4950905;28;20672;-68
2022/04/24 01:49:53;;;;;;;18.77;13.17;;;7.50;99.90;8.20;95475.00;;;;4950109;28;20680;-69
2022/04/24 01:52:22;;;;;;;19.03;13.50;;;7.50;99.90;8.30;95467.00;;;;4952170;29;20208;-69
2022/04/24 01:54:50;;;;;;;20.83;12.40;;;7.50;99.90;8.40;95460.00;;;;4951978;29;20224;-69
2022/04/24 01:57:20;;;;;;;16.67;12.87;;;7.60;99.90;8.40;95448.00;;;;4951875;29;20695;-68
2022/04/24 01:59:49;;;;;;;17.47;12.63;;;7.60;99.90;8.50;95440.00;;;;4951250;29;20703;-69
2022/04/24 02:02:17;;;;;;;22.73;16.75;;;7.60;99.90;8.40;95449.00;;;;4950755;29;20868;-69
2022/04/24 02:04:46;;;;;;;20.55;15.00;;;7.70;99.90;8.10;95435.00;;;;4951035;29;20964;-68
2022/04/24 02:07:15;;;;;;;19.30;13.53;;;7.70;99.90;7.90;95438.00;;;;4951728;29;20674;-68
2022/04/24 02:09:43;;;;;;;18.73;12.67;;;7.60;99.90;7.90;95439.00;;;;4951778;29;20690;-68
2022/04/24 02:12:12;;;;;;;18.77;13.00;;;7.60;99.90;8.00;95447.00;;;;4951740;29;20200;-68
2022/04/24 02:14:42;;;;;;;21.77;13.10;;;7.60;99.90;8.30;95446.00;;;;4952188;29;20718;-68
2022/04/24 02:17:10;;;;;;;17.17;12.30;;;7.60;99.90;8.10;95444.00;;;;4951435;28;20586;-69
2022/04/24 02:19:39;;;;;;;16.77;13.47;;;7.60;99.90;8.10;95423.00;;;;4951675;29;20544;-68
2022/04/24 02:22:08;;;;;;;16.33;11.63;;;7.60;99.90;8.30;95440.00;;;;4952087;29;20671;-69
2022/04/24 02:24:36;;;;;;;19.33;12.60;;;7.60;99.90;8.20;95442.00;;;;4951613;29;20730;-69
2022/04/24 02:27:06;;;;;;;21.83;16.25;;;7.60;99.90;8.10;95428.00;;;;4950271;29;21000;-69
2022/04/24 02:29:34;;;;;;;19.20;14.60;;;7.60;99.90;8.30;95420.00;;;;4950320;29;20881;-68
2022/04/24 02:32:05;;;;;;;19.20;15.10;;;7.60;99.90;8.20;95421.00;;;;4950440;29;21005;-68
2022/04/24 02:34:34;;;;;;;16.40;12.73;;;7.60;99.90;8.20;95423.00;;;;4951935;29;20618;-68
2022/04/24 02:37:02;;;;;;;16.63;11.30;;;7.60;99.90;8.30;95401.00;;;;4951357;29;20734;-68
2022/04/24 02:39:31;;;;;;;17.50;11.97;;;7.60;99.90;8.50;95403.00;;;;4951595;29;20575;-68
2022/04/24 02:41:59;;;;;;;14.70;11.63;;;7.70;99.90;8.50;95389.00;;;;4951323;29;20694;-68
2022/04/24 02:44:28;;;;;;;14.43;10.97;;;7.70;99.90;8.20;95389.00;;;;4951913;29;20726;-68
2022/04/24 02:46:56;;;;;;;15.67;12.30;;;7.70;99.90;8.20;95386.00;;;;4951278;29;20615;-68
2022/04/24 02:49:26;;;;;;;24.20;15.63;;;7.70;99.90;8.20;95390.00;;;;4950670;29;20960;-68
2022/04/24 02:51:55;;;;;;;18.95;15.18;;;7.60;99.90;8.30;95375.00;;;;4950277;29;20909;-68
2022/04/24 02:54:23;;;;;;;17.70;13.07;;;7.70;99.90;8.50;95387.00;;;;4951240;29;20734;-68
2022/04/24 02:56:52;;;;;;;16.47;12.53;;;7.70;99.90;8.50;95389.00;;;;4950770;29;20724;-68
2022/04/24 02:59:20;;;;;;;19.90;12.60;;;7.70;99.90;8.50;95374.00;;;;4950882;28;20680;-68
2022/04/24 03:01:49;;;;;;;16.57;11.17;;;7.80;99.90;8.10;95385.00;;;;4954609;29;20715;-68
2022/04/24 03:04:19;;;;;;;14.77;10.73;;;7.70;99.90;8.00;95374.00;;;;4955224;29;20767;-68
2022/04/24 03:06:50;;;;;;;16.17;12.03;;;7.70;99.90;8.00;95359.00;;;;4954506;29;20670;-68
2022/04/24 03:09:18;;;;;;;16.03;12.43;;;7.60;99.90;8.00;95362.00;;;;4954919;29;20607;-68
2022/04/24 03:11:47;;;;;;;16.07;10.50;;;7.60;99.90;8.20;95366.00;;;;4954828;29;20672;-68
2022/04/24 03:14:15;;;;;;;17.53;11.47;;;7.60;99.90;8.10;95358.00;;;;4955285;29;20671;-68
2022/04/24 03:16:44;;;;;;;15.77;11.33;;;7.60;99.90;8.10;95351.00;;;;4955028;28;20718;-68
2022/04/24 03:19:13;;;;;;;15.80;10.73;;;7.60;99.90;8.10;95342.00;;;;4954430;29;20690;-68
2022/04/24 03:21:41;;;;;;;15.10;11.73;;;7.60;99.90;8.30;95340.00;;;;4954805;29;20744;-68
2022/04/24 03:24:11;;;;;;;16.50;11.23;;;7.60;99.90;8.30;95341.00;;;;4954768;29;20718;-68
2022/04/24 03:26:40;;;;;;;19.55;15.40;;;7.60;99.90;8.20;95331.00;;;;4953134;29;20931;-68
2022/04/24 03:29:08;;;;;;;19.17;14.45;;;7.60;99.90;8.20;95329.00;;;;4953553;29;20818;-68
2022/04/24 03:31:37;;;;;;;19.85;14.45;;;7.60;99.90;8.20;95331.00;;;;4953292;29;20917;-68
2022/04/24 03:34:06;;;;;;;19.48;14.73;;;7.60;99.90;8.00;95337.00;;;;4953890;29;20964;-68
2022/04/24 03:36:34;;;;;;;16.75;13.50;;;7.60;99.90;8.00;95336.00;;;;4953016;28;20826;-68
2022/04/24 03:39:03;;;;;;;13.13;10.80;;;7.60;99.90;8.10;95344.00;;;;4954506;29;20660;-68
2022/04/24 03:41:33;;;;;;;18.10;11.70;;;7.50;99.90;8.00;95339.00;;;;4954168;29;20199;-68
2022/04/24 03:44:01;;;;;;;19.10;13.57;;;7.50;99.90;8.00;95329.00;;;;4953439;29;20929;-68
2022/04/24 03:46:30;;;;;;;15.18;12.65;;;7.50;99.90;7.60;95337.00;;;;4952859;29;21036;-68
2022/04/24 03:48:58;;;;;;;20.38;15.60;;;7.40;99.90;7.60;95332.00;;;;4953181;29;20402;-68
2022/04/24 03:51:27;;;;;;;23.17;18.15;;;7.40;99.90;7.40;95340.00;;;;4952704;29;20758;-68
2022/04/24 03:53:55;;;;;;;22.20;16.50;;;7.30;99.90;7.60;95321.00;;;;4953362;29;20800;-68
2022/04/24 03:56:24;;;;;;;13.87;10.47;;;7.20;99.90;7.70;95313.00;;;;4954127;29;20706;-68
2022/04/24 03:58:54;;;;;;;10.27;9.07;;;7.20;99.90;7.80;95325.00;;;;4953597;29;20586;-68
2022/04/24 04:01:22;;;;;;;15.48;11.70;;;7.20;99.90;7.80;95322.00;;;;4951325;29;20793;-68
2022/04/24 04:03:51;;;;;;;18.85;12.98;;;7.20;99.90;7.60;95322.00;;;;4952995;29;20962;-68
2022/04/24 04:06:20;;;;;;;20.02;15.75;;;7.20;99.90;7.50;95310.00;;;;4952720;29;20877;-68
2022/04/24 04:08:49;;;;;;;23.63;17.52;;;7.20;99.90;7.50;95308.00;;;;4951998;28;20889;-68
2022/04/24 04:11:17;;;;;;;18.60;14.48;;;7.20;99.90;7.00;95307.00;;;;4952664;28;20932;-68
2022/04/24 04:13:46;;;;;;;18.43;13.67;;;7.10;99.90;7.10;95291.00;;;;4952757;29;20956;-68
2022/04/24 04:16:16;;;;;;;17.92;14.60;;;7.00;99.90;7.40;95290.00;;;;4952158;28;20901;-68
2022/04/24 04:18:44;;;;;;;18.47;12.13;;;7.00;99.90;7.70;95288.00;;;;4953180;29;20738;-68
2022/04/24 04:21:13;;;;;;;21.83;14.97;;;7.10;99.90;7.70;95306.00;;;;4952631;29;20397;-68
2022/04/24 04:23:41;;;;;;;17.10;13.70;;;7.10;99.90;7.50;95303.00;;;;4952307;29;20917;-68
2022/04/24 04:26:10;;;;;;;16.25;12.95;;;7.10;99.90;7.70;95291.00;;;;4952556;29;20889;-68
2022/04/24 04:28:39;;;;;;;15.32;12.70;;;7.10;99.90;7.80;95292.00;;;;4951952;29;20912;-68
2022/04/24 04:31:07;;;;;;;15.07;10.67;;;7.20;99.90;7.70;95290.00;;;;4952967;29;20734;-68
2022/04/24 04:33:37;;;;;;;13.10;10.00;;;7.20;99.90;7.50;95288.00;;;;4953715;29;20668;-68
2022/04/24 04:36:08;;;;;;;13.97;10.97;;;7.10;99.90;7.30;95298.00;;;;4953845;29;20590;-68
2022/04/24 04:38:37;;;;;;;15.97;13.03;;;7.10;99.90;7.50;95299.00;;;;4951732;29;20978;-68
2022/04/24 04:41:06;;;;;;;17.65;14.18;;;7.10;99.90;7.60;95306.00;;;;4951213;29;20401;-68
2022/04/24 04:43:34;;;;;;;16.90;13.18;;;7.10;99.90;7.60;95305.00;;;;4952085;29;20825;-68
2022/04/24 04:46:03;;;;;;;15.68;12.27;;;7.10;99.90;7.40;95318.00;;;;4952161;29;20908;-68
2022/04/24 04:48:32;;;;;;;14.23;11.60;;;7.10;99.90;7.50;95318.00;;;;4951396;28;20929;-68
2022/04/24 04:51:02;;;;;;;16.15;13.30;;;7.10;99.90;7.90;95307.00;;;;4952101;29;20949;-68
2022/04/24 04:53:30;;;;;;;14.33;10.17;;;7.20;99.90;7.90;95307.00;;;;4953207;29;20675;-68
2022/04/24 04:55:59;;;;;;;13.77;10.27;;;7.20;99.90;8.00;95323.00;;;;4953014;29;20703;-68
2022/04/24 04:58:28;;;;;;;13.33;10.47;;;7.30;99.90;7.80;95304.00;;;;4952650;29;20737;-68
2022/04/24 05:00:56;;;;;;;13.77;11.30;;;7.30;99.90;7.70;95317.00;;;;4951208;29;20413;-68
2022/04/24 05:03:25;;;;;;;14.50;11.50;;;7.30;99.90;7.90;95315.00;;;;4951818;29;20890;-69
2022/04/24 05:05:54;;;;;;;13.27;9.50;;;7.30;99.90;7.90;95322.00;;;;4953160;29;20700;-68
2022/04/24 05:08:24;;;;;;;15.65;12.18;;;7.30;99.90;7.90;95328.00;;;;4951688;28;20886;-69
2022/04/24 05:10:52;;;;;;;15.40;12.55;;;7.30;99.90;7.70;95312.00;;;;4951209;29;20861;-69
2022/04/24 05:13:21;;;;;;;17.60;12.88;;;7.30;99.90;7.80;95298.00;;;;4951692;29;20957;-68
2022/04/24 05:15:50;;;;;;;14.68;12.50;;;7.40;99.90;8.10;95307.00;;;;4952035;28;20913;-69
2022/04/24 05:18:19;;;;;;;15.80;12.68;;;7.50;99.90;8.10;95289.00;;;;4950814;29;20897;-68
2022/04/24 05:20:47;;;;;;;13.03;10.67;;;7.50;99.90;8.30;95293.00;;;;4951597;29;20684;-68
2022/04/24 05:23:16;;;;;;;17.77;13.48;;;7.60;99.90;8.40;95284.00;;;;4950235;28;21452;-68
2022/04/24 05:25:46;;;;;;;16.77;13.60;;;7.70;99.90;8.50;95290.00;;;;4951096;29;20968;-68
2022/04/24 05:28:14;;;;;;;14.05;11.70;;;7.80;99.90;8.60;95274.00;;;;4950894;29;20984;-68
2022/04/24 05:30:43;;;;;;;14.50;11.90;;;7.90;99.90;8.20;95306.00;;;;4951166;29;20961;-68
2022/04/24 05:33:17;;;;;;;14.27;11.97;;;8.00;99.90;8.50;95287.00;;;;4951259;29;20846;-68
2022/04/24 05:35:46;;;;;;;15.15;12.38;;;7.90;99.90;8.50;95310.00;;;;4950889;29;21243;-68
2022/04/24 05:38:15;;;;;;;15.25;12.05;;;8.00;99.90;8.60;95300.00;;;;4950766;29;20837;-68
2022/04/24 05:40:45;;;;;;;14.27;11.30;;;8.00;99.90;8.90;95299.00;;;;4951008;28;20409;-68
2022/04/24 05:43:13;;;;;;;13.67;9.60;;;8.10;99.90;9.10;95292.00;;;;4952198;29;20206;-68
2022/04/24 05:45:42;;;;;;;17.40;12.00;;;8.20;99.90;9.30;95285.00;;;;4950936;29;20430;-68
2022/04/24 05:48:11;;;;;;;12.80;9.77;;;8.30;99.90;9.60;95285.00;;;;4951619;28;20689;-68
2022/04/24 05:50:39;;;;;;;11.80;8.90;;;8.40;99.90;9.90;95290.00;;;;4951455;29;20678;-68
2022/04/24 05:53:08;;;;;;;16.33;11.47;;;8.50;99.90;10.00;95290.00;;;;4952497;29;20675;-68
2022/04/24 05:55:36;;;;;;;15.03;10.77;;;8.70;99.90;9.70;95295.00;;;;4952014;29;20714;-68
2022/04/24 05:58:07;;;;;;;11.20;9.17;;;8.80;99.90;9.40;95300.00;;;;4951680;28;20719;-68
2022/04/24 06:00:36;;;;;;;12.07;10.40;;;8.80;99.90;9.60;95303.00;;;;4951790;29;20714;-68
2022/04/24 06:03:05;;;;;;;14.53;9.13;;;8.80;99.90;9.90;95279.00;;;;4952203;28;20251;-68
2022/04/24 06:05:33;;;;;;;15.93;9.73;;;8.90;99.90;10.00;95279.00;;;;4951896;29;20717;-68
2022/04/24 06:08:02;;;;;;;15.97;11.00;;;8.90;99.90;10.10;95276.00;;;;4951469;29;20203;-68
2022/04/24 06:10:30;;;;;;;14.40;10.43;;;9.00;99.90;10.30;95282.00;;;;4951744;29;20671;-68
2022/04/24 06:12:59;;;;;;;15.47;10.43;;;9.10;99.90;10.30;95263.00;;;;4952018;29;20675;-68
2022/04/24 06:15:29;;;;;;;12.23;9.63;;;9.20;99.90;9.90;95274.00;;;;4952322;28;20758;-68
2022/04/24 06:17:59;;;;;;;12.40;10.20;;;9.20;99.90;10.00;95280.00;;;;4951301;29;20679;-68
2022/04/24 06:20:29;;;;;;;13.83;10.13;;;9.20;99.90;10.10;95282.00;;;;4951745;29;20195;-68
2022/04/24 06:23:00;;;;;;;16.13;9.80;;;9.20;99.90;10.40;95290.00;;;;4951227;29;20679;-68
2022/04/24 06:25:31;;;;;;;20.23;10.80;;;9.30;99.90;10.50;95290.00;;;;4951268;29;20228;-68
2022/04/24 06:28:00;;;;;;;14.57;9.77;;;9.30;99.90;10.60;95295.00;;;;4951289;29;20672;-68
2022/04/24 06:30:33;;;;;;;14.07;11.47;;;9.40;99.90;10.70;95283.00;;;;4951802;29;20903;-68
2022/04/24 06:33:02;;;;;;;15.87;11.10;;;9.50;99.90;10.80;95268.00;;;;4951760;29;20652;-68
2022/04/24 06:35:30;;;;;;;13.85;11.32;;;9.60;99.90;10.70;95281.00;;;;4952973;28;20911;-68
2022/04/24 06:37:59;;;;;;;14.07;9.90;;;9.70;99.90;10.50;95285.00;;;;4955341;29;20251;-68
2022/04/24 06:40:28;;;;;;;16.47;10.97;;;9.70;99.90;10.60;95274.00;;;;4955867;29;20206;-68
2022/04/24 06:42:58;;;;;;;13.40;9.30;;;9.80;99.90;10.80;95276.00;;;;4956039;29;21026;-68
2022/04/24 06:45:30;;;;;;;13.37;9.80;;;9.80;99.90;10.70;95303.00;;;;4955354;29;20813;-68
2022/04/24 06:48:00;;;;;;;13.43;11.03;;;9.80;99.90;11.20;95300.00;;;;4955007;29;20196;-68
2022/04/24 06:50:30;;;;;;;18.03;12.30;;;9.90;99.90;11.30;95302.00;;;;4953389;29;20401;-68
2022/04/24 06:53:01;;;;;;;14.03;10.53;;;10.00;99.90;11.50;95287.00;;;;4955542;29;20811;-68
2022/04/24 06:55:32;;;;;;;16.00;11.87;;;10.20;99.90;11.70;95294.00;;;;4955346;29;20684;-68
2022/04/24 06:58:01;;;;;;;14.10;10.43;;;10.30;99.90;11.70;95299.00;;;;4954911;28;20671;-68
2022/04/24 07:00:34;;;;;;;15.43;11.43;;;10.40;99.90;11.70;95295.00;;;;4953071;29;21007;-68
2022/04/24 07:03:18;;;;;;;16.05;12.38;;;10.50;99.90;11.90;95288.00;;;;4954183;29;20940;-68
2022/04/24 07:05:47;;;;;;;13.30;9.87;;;10.60;99.90;12.00;95293.00;;;;4954881;29;20228;-68
2022/04/24 07:08:15;;;;;;;13.60;9.73;;;10.70;99.90;12.00;95301.00;;;;4954605;29;20227;-68
2022/04/24 07:10:44;;;;;;;10.63;9.17;;;10.80;99.90;12.20;95303.00;;;;4954957;29;20683;-68
2022/04/24 07:13:12;;;;;;;12.73;9.73;;;10.90;99.90;12.40;95307.00;;;;4954446;29;20750;-68
2022/04/24 07:15:42;;;;;;;13.87;11.77;;;11.00;99.90;12.40;95314.00;;;;4955696;28;20703;-68
2022/04/24 07:18:11;;;;;;;13.37;10.17;;;11.10;99.90;12.60;95313.00;;;;4954342;29;20742;-68
2022/04/24 07:20:40;;;;;;;17.00;10.37;;;11.20;99.90;12.80;95300.00;;;;4954813;29;20195;-69
2022/04/24 07:23:11;;;;;;;11.87;9.07;;;11.30;99.90;12.60;95303.00;;;;4954423;29;20660;-68
2022/04/24 07:25:43;;;;;;;12.30;9.00;;;11.50;99.90;12.70;95312.00;;;;4954509;29;20223;-68
2022/04/24 07:28:13;;;;;;;15.30;8.77;;;11.50;99.90;12.60;95323.00;;;;4954325;29;20667;-68
2022/04/24 07:30:43;;;;;;;25.83;10.13;;;11.60;99.90;12.60;95333.00;;;;4954528;29;20745;-68
2022/04/24 07:33:13;;;;;;;20.67;11.10;;;11.60;99.90;12.90;95337.00;;;;4954751;29;20742;-68
2022/04/24 07:35:42;;;;;;;12.87;6.87;;;11.70;99.90;12.80;95318.00;;;;4954488;29;20738;-68
2022/04/24 07:38:11;;;;;;;27.37;10.50;;;11.70;99.90;13.00;95308.00;;;;4954304;29;20755;-68
2022/04/24 07:40:40;;;;;;;18.40;11.10;;;11.80;99.90;13.20;95294.00;;;;4954442;29;20279;-68
2022/04/24 07:43:10;;;;;;;19.93;10.50;;;11.90;99.90;13.30;95291.00;;;;4954988;29;20204;-68
2022/04/24 07:45:42;;;;;;;24.77;10.73;;;12.00;99.90;13.60;95289.00;;;;4967710;23;20237;-88
2022/04/24 07:48:13;;;;;;;15.87;8.53;;;12.10;99.90;13.70;95289.00;;;;4976364;28;20198;-88
2022/04/24 07:50:44;;;;;;;14.97;9.33;;;12.20;99.90;14.00;95280.00;;;;4975084;28;20532;-86
2022/04/24 07:53:14;;;;;;;14.70;7.70;;;12.40;99.90;14.50;95281.00;;;;4977578;28;20196;-87
2022/04/24 07:55:43;;;;;;;12.85;8.65;;;12.60;99.90;14.80;95273.00;;;;4956023;28;21068;-86
2022/04/24 07:58:13;;;;;;;11.98;7.47;;;12.90;99.90;15.30;95267.00;;;;4956225;28;20520;-87
2022/04/24 08:00:44;;;;;;;13.43;6.40;;;13.60;99.90;15.80;95254.00;;;;4956474;28;20275;-86
2022/04/24 08:03:15;;;;;;;5.83;5.13;;;13.60;99.90;16.20;95276.00;;;;4957342;29;20211;-88
2022/04/24 08:05:46;;;;;;;7.75;5.00;;;14.00;99.90;15.50;95261.00;;;;4955625;28;21017;-86
2022/04/24 08:08:17;;;;;;;8.10;4.00;;;14.20;99.90;15.90;95257.00;;;;4956727;29;20197;-87
2022/04/24 08:10:48;;;;;;;6.47;3.77;;;14.40;99.90;15.60;95266.00;;;;4956634;28;20332;-86
2022/04/24 08:13:18;;;;;;;5.83;4.53;;;14.60;99.90;15.80;95280.00;;;;4957077;28;20202;-88
2022/04/24 08:15:50;;;;;;;6.03;4.10;;;14.60;99.90;15.30;95291.00;;;;4956754;28;20216;-88
2022/04/24 08:18:19;;;;;;;6.63;4.35;;;14.50;99.90;15.40;95279.00;;;;4954469;28;20402;-87
2022/04/24 08:20:48;;;;;;;6.13;3.80;;;14.50;99.90;14.80;95278.00;;;;4955249;28;20402;-88
2022/04/24 08:23:17;;;;;;;3.13;2.17;;;14.40;99.90;14.00;95268.00;;;;4955339;29;20395;-87
2022/04/24 08:25:46;;;;;;;;;;;14.10;99.90;14.10;95266.00;;;;4955221;28;20432;-88
2022/04/24 08:28:16;;;;;;;2.13;1.33;;;13.90;99.90;14.00;95269.00;;;;4955207;29;20500;-86
2022/04/24 08:30:48;;;;;;;1.20;1.10;;;13.80;99.90;14.00;95245.00;;;;4955885;29;20204;-88
2022/04/24 08:33:18;;;;;;;2.30;1.20;;;13.80;99.90;13.90;95242.00;;;;4956065;29;20203;-85
2022/04/24 08:35:48;;;;;;;1.33;0.70;;;13.70;99.90;14.00;95226.00;;;;4956203;28;20199;-85
2022/04/24 08:38:17;;;;;;;1.53;0.93;;;13.70;99.90;14.00;95227.00;;;;4955711;28;20207;-87
2022/04/24 08:40:47;;;;;;;2.30;0.90;;;13.70;99.90;14.20;95214.00;;;;4955947;28;20215;-86
2022/04/24 08:43:15;;;;;;;1.27;0.90;;;13.70;99.90;14.40;95220.00;;;;4955404;28;20207;-87
2022/04/24 08:45:44;;;;;;;1.83;1.07;;;13.80;99.90;14.60;95228.00;;;;4956137;28;20220;-87
2022/04/24 08:48:15;;;;;;;0.97;0.73;;;14.00;99.90;14.70;95249.00;;;;4955302;28;20204;-86
2022/04/24 08:50:44;;;;;;;0.80;0.50;;;14.10;99.90;14.50;95248.00;;;;4954197;28;20422;-85
2022/04/24 08:53:15;;;;;;;1.37;0.80;;;14.20;99.90;14.60;95259.00;;;;4955307;28;20521;-88
2022/04/24 08:55:43;;;;;;;1.52;0.60;;;14.30;99.90;14.60;95270.00;;;;4954235;29;20410;-84
2022/04/24 08:58:12;;;;;;;1.05;0.70;;;14.40;99.90;14.80;95265.00;;;;4952783;28;20397;-88
2022/04/24 09:00:43;;;;;;;1.02;0.60;;;14.40;99.90;15.00;95275.00;;;;4953312;29;20406;-86
2022/04/24 09:03:14;;;;;;;1.27;0.70;;;14.40;99.90;14.80;95281.00;;;;4954478;28;20410;-88
2022/04/24 09:05:43;;;;;;;0.75;0.50;;;14.40;99.90;14.90;95285.00;;;;4954495;29;20453;-88
2022/04/24 09:08:14;;;;;;;1.00;0.47;;;14.40;98.60;14.60;95285.00;;;;4954149;29;20405;-87
2022/04/24 09:11:03;;;;;;;0.60;0.47;;;14.40;99.00;15.10;95276.00;;;;4954123;29;20413;-90
2022/04/24 09:14:14;;;;;;;1.30;0.50;;;14.40;99.00;15.30;95271.00;;;;4953190;28;20394;-87
2022/04/24 09:16:34;;;;;;;2.63;0.82;;;14.50;99.10;15.70;95283.00;;;;4953663;29;20410;-89
2022/04/24 09:19:05;;;;;;;1.02;0.60;;;14.60;99.90;16.10;95284.00;;;;4946162;29;20413;-90
2022/04/24 09:21:36;;;;;;;1.00;0.68;;;14.80;99.90;16.50;95283.00;;;;4951320;29;20534;-88
2022/04/24 09:24:05;;;;;;;1.27;0.50;;;15.00;99.90;16.80;95287.00;;;;4973706;23;21201;-73
2022/04/24 09:26:34;;;;;;;4.90;3.87;;;15.10;99.90;17.20;95258.00;;;;4951398;28;20282;-72
2022/04/24 09:29:14;;;;;;;6.90;4.77;;;15.40;99.90;16.00;95255.00;;;;4952458;29;20291;-71
2022/04/24 09:31:47;;;;;;;2.87;1.30;;;15.60;98.00;15.90;95275.00;;;;4952217;29;20196;-70
2022/04/24 09:34:20;;;;;;;1.00;0.90;;;15.60;95.90;16.70;95280.00;;;;4951209;28;20223;-71
2022/04/24 09:37:01;;;;;;;0.80;0.60;;;15.70;95.80;16.60;95279.00;;;;4958911;23;21015;-86
2022/04/24 09:39:30;;;;;;;1.30;1.00;;;15.80;92.90;17.30;95272.00;;;;4939794;29;20232;-85
2022/04/24 09:42:07;;;;;;;0.83;0.73;;;16.00;92.90;17.60;95278.00;;;;4939089;29;20205;-85
2022/04/24 09:44:42;;;;;;;0.40;0.30;;;16.20;91.70;16.60;95263.00;;;;4943300;29;20204;-85
2022/04/24 09:47:29;;;;;;;1.63;0.90;;;16.30;90.90;17.50;95255.00;;;;4940126;29;20232;-86
2022/04/24 09:50:02;;;;;;;3.50;1.30;;;16.30;90.30;16.90;95245.00;;;;4937413;29;20810;-84
2022/04/24 09:52:33;;;;;;;0.70;0.40;;;16.60;90.10;17.40;95247.00;;;;4938949;29;20403;-86
2022/04/24 09:55:03;;;;;;;1.30;0.50;;;16.60;86.40;16.90;95270.00;;;;4937593;29;20400;-88
2022/04/24 09:57:32;;;;;;;0.90;0.20;;;16.80;81.70;17.40;95252.00;;;;4938487;29;20769;-85
2022/04/24 10:00:01;;;;;;;0.40;0.20;;;16.70;76.30;17.20;95255.00;;;;4939486;29;20802;-87
2022/04/24 10:02:31;;;;;;;0.20;0.20;;;16.80;75.70;16.80;95265.00;;;;4938362;29;20201;-87
2022/04/24 10:05:01;;;;;;;2.63;0.40;;;16.70;75.90;17.00;95253.00;;;;4939430;29;20196;-86
2022/04/24 10:07:30;;;;;;;1.67;0.30;;;16.70;73.50;16.80;95269.00;;;;4940899;29;20307;-85
2022/04/24 10:09:59;;;;;;;0.30;0.23;;;16.70;72.00;16.20;95276.00;;;;4937165;29;20271;-85
2022/04/24 10:12:28;;;;;;;0.37;0.20;;;16.50;74.50;16.70;95263.00;;;;4938625;29;20200;-83
2022/04/24 10:15:01;;;;;;;0.40;0.30;;;16.50;72.10;16.30;95228.00;;;;4937106;29;20196;-87
2022/04/24 10:17:47;;;;;;;1.60;0.30;;;16.50;71.30;17.00;95231.00;;;;4937599;29;20216;-86
2022/04/24 10:20:31;;;;;;;0.43;0.30;;;16.60;70.70;17.60;95228.00;;;;4938678;29;20196;-88
2022/04/24 10:23:00;;;;;;;0.60;0.40;;;16.90;71.10;17.60;95284.00;;;;4939557;29;20193;-86
2022/04/24 10:25:35;;;;;;;0.20;0.20;;;17.00;70.70;16.80;95289.00;;;;4939776;29;20233;-85
2022/04/24 10:28:16;;;;;;;1.30;0.50;;;16.70;68.90;17.00;95298.00;;;;4937913;29;20236;-87
2022/04/24 10:30:46;;;;;;;0.30;0.30;;;16.80;69.60;16.70;95255.00;;;;4937649;29;20196;-86
2022/04/24 10:33:18;;;;;;;0.50;0.40;;;16.80;67.10;17.00;95299.00;;;;4938177;29;20196;-86
2022/04/24 10:35:51;;;;;;;0.57;0.30;;;16.70;66.80;16.50;95310.00;;;;4945242;29;20228;-86
2022/04/24 10:38:22;;;;;;;0.27;0.23;;;16.60;65.70;16.30;95299.00;;;;4939655;29;20216;-88
2022/04/24 10:40:59;;;;;;;0.60;0.40;;;16.40;65.70;16.60;95315.00;;;;4940271;29;20283;-86
2022/04/24 10:43:37;;;;;;;0.50;0.30;;;16.30;67.90;16.50;95323.00;;;;4938364;29;20211;-86
2022/04/24 10:46:18;;;;;;;0.67;0.50;;;16.20;68.00;15.80;95270.00;;;;4939166;29;20227;-86
2022/04/24 10:48:48;;;;;;;0.50;0.40;;;16.10;66.80;16.90;95334.00;;;;4940480;29;20209;-87
2022/04/24 10:51:30;;;;;;;0.70;0.20;;;16.20;66.50;17.10;95260.00;;;;4947033;28;20207;-85
2022/04/24 10:54:01;;;;;;;0.50;0.30;;;16.50;67.90;16.20;95324.00;;;;4957325;28;20220;-87
2022/04/24 10:56:32;;;;;;;0.40;0.33;;;16.40;67.70;16.40;95309.00;;;;4955305;28;20315;-84
2022/04/24 10:59:08;;;;;;;0.63;0.27;;;16.30;66.50;17.60;95273.00;;;;4939648;29;20200;-87
2022/04/24 11:01:38;;;;;;;0.40;0.40;;;16.70;67.10;18.10;95293.00;;;;4942957;29;20228;-84
2022/04/24 11:04:09;;;;;;;0.50;0.30;;;17.10;66.20;18.10;95261.00;;;;4942672;29;20407;-86